メインページ
METAR-TAF:

METAR-TAF

空港 :

ジュネーヴ, スイス

ジュネーヴ空港

緯度: 46-15N, 経度: 006-08E, 海抜: 420m

現時点の気象観測

当レポートは31分前の11:20(UTC)に作成
北東の風 8kt、から東/北東の間で変化する
気温 23°C
湿度 53%
気圧 1022 hPa
視程10km以上
高度4000ftの雲はほとんどない
高度28000ftの千切れ雲あり

METAR: LSGG 241120Z 04008KT 350V060 9999 FEW040 BKN280 23/13 Q1022 NOSIG

時間: 13:51 (11:51 UTC)

予報

当レポートは26分前の11:25(UTC)に作成
予報は24日の 12時(UTC)から 25日の 18時(UTC)まで有効
北東の風 10kt
視程10km以上
高度3500ftの雲はほとんどない
24日の 18時(UTC)から 24日の 20時(UTC)まで徐々に
変向風 3kt
視程10km以上
1,500メートル以下は雲なし、積乱雲なし
25日の 08時(UTC)から 25日の 10時(UTC)まで徐々に
北東の風 15kt、最大25ktの突風を伴う

TAF: LSGG 241125Z 2412/2518 05010KT 9999 FEW035 TX25/2415Z TN14/2506Z TX25/2515Z BECMG 2418/2420 VRB03KT CAVOK BECMG 2508/2510 05015G25KT

4,000以上の空港の気象観測と天気予報(METAR報とTAF報)

利用可能な観測所は地図上に黄色い丸と赤い丸で示す。

丸の上にカーソルを重ねると観測所名を参照できる。

次にクリックすると気象観測と天気予報を参照できる。

マップの切り替え:黒色「×」印の緑ボタンをクリックして拡大、「-」印の緑ボタンをクリックして縮小、緑色の三角印をクリックして隣りの地図に切り替え


METAR-TAF: